sensor_id;sensor_type;location;lat;lon;timestamp;P1;durP1;ratioP1;P2;durP2;ratioP2
74656;SDS011;63185;45.642;13.764;2024-01-25T00:01:19;115.15;;;68.80;;
74656;SDS011;63185;45.642;13.764;2024-01-25T00:03:45;93.88;;;60.13;;
74656;SDS011;63185;45.642;13.764;2024-01-25T00:06:11;88.78;;;56.45;;
74656;SDS011;63185;45.642;13.764;2024-01-25T00:08:37;92.97;;;58.72;;
74656;SDS011;63185;45.642;13.764;2024-01-25T00:11:02;95.63;;;59.03;;
74656;SDS011;63185;45.642;13.764;2024-01-25T00:13:29;90.70;;;58.75;;
74656;SDS011;63185;45.642;13.764;2024-01-25T00:15:54;93.45;;;58.33;;
74656;SDS011;63185;45.642;13.764;2024-01-25T00:18:20;93.45;;;60.30;;
74656;SDS011;63185;45.642;13.764;2024-01-25T00:20:46;105.82;;;61.80;;
74656;SDS011;63185;45.642;13.764;2024-01-25T00:23:12;96.13;;;62.83;;
74656;SDS011;63185;45.642;13.764;2024-01-25T00:25:37;97.40;;;62.75;;
74656;SDS011;63185;45.642;13.764;2024-01-25T00:28:03;101.63;;;62.00;;
74656;SDS011;63185;45.642;13.764;2024-01-25T00:30:29;100.25;;;62.60;;
74656;SDS011;63185;45.642;13.764;2024-01-25T00:32:58;103.65;;;61.65;;
74656;SDS011;63185;45.642;13.764;2024-01-25T00:35:24;100.50;;;64.10;;
74656;SDS011;63185;45.642;13.764;2024-01-25T00:37:50;99.65;;;61.75;;
74656;SDS011;63185;45.642;13.764;2024-01-25T00:40:16;99.70;;;60.47;;
74656;SDS011;63185;45.642;13.764;2024-01-25T00:42:43;96.85;;;59.72;;
74656;SDS011;63185;45.642;13.764;2024-01-25T00:45:14;90.47;;;58.00;;
74656;SDS011;63185;45.642;13.764;2024-01-25T00:47:39;92.22;;;55.80;;
74656;SDS011;63185;45.642;13.764;2024-01-25T00:50:06;91.13;;;55.03;;
74656;SDS011;63185;45.642;13.764;2024-01-25T00:52:32;90.30;;;54.50;;
74656;SDS011;63185;45.642;13.764;2024-01-25T00:54:58;89.13;;;55.97;;
74656;SDS011;63185;45.642;13.764;2024-01-25T00:57:24;84.13;;;54.00;;
74656;SDS011;63185;45.642;13.764;2024-01-25T00:59:50;98.15;;;55.63;;
74656;SDS011;63185;45.642;13.764;2024-01-25T01:02:15;95.03;;;58.60;;
74656;SDS011;63185;45.642;13.764;2024-01-25T01:04:42;92.07;;;57.95;;
74656;SDS011;63185;45.642;13.764;2024-01-25T01:07:08;98.63;;;60.85;;
74656;SDS011;63185;45.642;13.764;2024-01-25T01:09:34;97.82;;;60.85;;
74656;SDS011;63185;45.642;13.764;2024-01-25T01:12:00;92.93;;;58.78;;
74656;SDS011;63185;45.642;13.764;2024-01-25T01:14:26;96.60;;;59.00;;
74656;SDS011;63185;45.642;13.764;2024-01-25T01:16:51;94.97;;;60.10;;
74656;SDS011;63185;45.642;13.764;2024-01-25T01:19:17;96.90;;;59.55;;
74656;SDS011;63185;45.642;13.764;2024-01-25T01:21:43;90.10;;;58.95;;
74656;SDS011;63185;45.642;13.764;2024-01-25T01:24:09;92.22;;;59.10;;
74656;SDS011;63185;45.642;13.764;2024-01-25T01:26:36;91.78;;;60.25;;
74656;SDS011;63185;45.642;13.764;2024-01-25T01:29:02;92.90;;;59.03;;
74656;SDS011;63185;45.642;13.764;2024-01-25T01:31:28;97.03;;;59.00;;
74656;SDS011;63185;45.642;13.764;2024-01-25T01:33:54;98.72;;;62.10;;
74656;SDS011;63185;45.642;13.764;2024-01-25T01:36:19;93.40;;;59.78;;
74656;SDS011;63185;45.642;13.764;2024-01-25T01:38:45;106.88;;;64.00;;
74656;SDS011;63185;45.642;13.764;2024-01-25T01:41:11;101.05;;;62.95;;
74656;SDS011;63185;45.642;13.764;2024-01-25T01:43:38;103.47;;;62.83;;
74656;SDS011;63185;45.642;13.764;2024-01-25T01:46:04;105.55;;;64.10;;
74656;SDS011;63185;45.642;13.764;2024-01-25T01:48:39;109.82;;;68.95;;
74656;SDS011;63185;45.642;13.764;2024-01-25T01:51:05;107.10;;;66.35;;
74656;SDS011;63185;45.642;13.764;2024-01-25T01:53:32;105.38;;;62.92;;
74656;SDS011;63185;45.642;13.764;2024-01-25T01:55:58;99.40;;;63.10;;
74656;SDS011;63185;45.642;13.764;2024-01-25T01:58:24;96.95;;;62.88;;
74656;SDS011;63185;45.642;13.764;2024-01-25T02:00:52;101.65;;;63.65;;
74656;SDS011;63185;45.642;13.764;2024-01-25T02:03:19;100.10;;;62.83;;
74656;SDS011;63185;45.642;13.764;2024-01-25T02:05:45;103.47;;;62.50;;
74656;SDS011;63185;45.642;13.764;2024-01-25T02:08:11;97.95;;;59.92;;
74656;SDS011;63185;45.642;13.764;2024-01-25T02:10:37;94.47;;;57.38;;
74656;SDS011;63185;45.642;13.764;2024-01-25T02:13:03;86.63;;;55.00;;
74656;SDS011;63185;45.642;13.764;2024-01-25T02:15:29;90.93;;;57.72;;
74656;SDS011;63185;45.642;13.764;2024-01-25T02:17:55;96.05;;;60.20;;
74656;SDS011;63185;45.642;13.764;2024-01-25T02:20:21;95.20;;;58.00;;
74656;SDS011;63185;45.642;13.764;2024-01-25T02:22:47;94.13;;;57.67;;
74656;SDS011;63185;45.642;13.764;2024-01-25T02:25:12;92.47;;;58.75;;
74656;SDS011;63185;45.642;13.764;2024-01-25T02:27:38;95.85;;;58.35;;
74656;SDS011;63185;45.642;13.764;2024-01-25T02:30:07;93.70;;;56.50;;
74656;SDS011;63185;45.642;13.764;2024-01-25T02:32:33;93.68;;;56.63;;
74656;SDS011;63185;45.642;13.764;2024-01-25T02:34:59;93.88;;;61.03;;
74656;SDS011;63185;45.642;13.764;2024-01-25T02:37:25;96.55;;;59.30;;
74656;SDS011;63185;45.642;13.764;2024-01-25T02:39:51;101.05;;;61.22;;
74656;SDS011;63185;45.642;13.764;2024-01-25T02:42:18;92.57;;;59.35;;
74656;SDS011;63185;45.642;13.764;2024-01-25T02:44:43;98.35;;;63.15;;
74656;SDS011;63185;45.642;13.764;2024-01-25T02:47:09;103.50;;;61.00;;
74656;SDS011;63185;45.642;13.764;2024-01-25T02:49:35;99.20;;;59.22;;
74656;SDS011;63185;45.642;13.764;2024-01-25T02:52:01;92.10;;;58.95;;
74656;SDS011;63185;45.642;13.764;2024-01-25T02:54:27;96.68;;;59.13;;
74656;SDS011;63185;45.642;13.764;2024-01-25T02:56:53;89.80;;;56.45;;
74656;SDS011;63185;45.642;13.764;2024-01-25T02:59:18;101.13;;;58.70;;
74656;SDS011;63185;45.642;13.764;2024-01-25T03:01:44;93.30;;;57.42;;
74656;SDS011;63185;45.642;13.764;2024-01-25T03:04:10;90.45;;;58.65;;
74656;SDS011;63185;45.642;13.764;2024-01-25T03:06:36;95.68;;;57.20;;
74656;SDS011;63185;45.642;13.764;2024-01-25T03:09:02;91.63;;;57.25;;
74656;SDS011;63185;45.642;13.764;2024-01-25T03:11:31;95.45;;;57.35;;
74656;SDS011;63185;45.642;13.764;2024-01-25T03:13:57;98.00;;;60.15;;
74656;SDS011;63185;45.642;13.764;2024-01-25T03:16:23;97.43;;;58.17;;
74656;SDS011;63185;45.642;13.764;2024-01-25T03:18:48;91.45;;;54.72;;
74656;SDS011;63185;45.642;13.764;2024-01-25T03:21:14;93.45;;;57.78;;
74656;SDS011;63185;45.642;13.764;2024-01-25T03:23:40;87.90;;;57.22;;
74656;SDS011;63185;45.642;13.764;2024-01-25T03:26:05;89.88;;;55.97;;
74656;SDS011;63185;45.642;13.764;2024-01-25T03:28:32;78.43;;;53.30;;
74656;SDS011;63185;45.642;13.764;2024-01-25T03:30:59;82.72;;;51.25;;
74656;SDS011;63185;45.642;13.764;2024-01-25T03:33:25;81.75;;;50.45;;
74656;SDS011;63185;45.642;13.764;2024-01-25T03:35:52;75.70;;;48.08;;
74656;SDS011;63185;45.642;13.764;2024-01-25T03:38:17;82.30;;;50.20;;
74656;SDS011;63185;45.642;13.764;2024-01-25T03:40:43;85.85;;;51.35;;
74656;SDS011;63185;45.642;13.764;2024-01-25T03:43:09;83.25;;;52.15;;
74656;SDS011;63185;45.642;13.764;2024-01-25T03:45:35;84.68;;;51.47;;
74656;SDS011;63185;45.642;13.764;2024-01-25T03:48:00;88.35;;;51.35;;
74656;SDS011;63185;45.642;13.764;2024-01-25T03:50:27;77.63;;;50.47;;
74656;SDS011;63185;45.642;13.764;2024-01-25T03:52:52;77.88;;;49.45;;
74656;SDS011;63185;45.642;13.764;2024-01-25T03:55:18;73.65;;;47.85;;
74656;SDS011;63185;45.642;13.764;2024-01-25T03:57:44;69.47;;;43.20;;
74656;SDS011;63185;45.642;13.764;2024-01-25T04:00:10;72.82;;;44.58;;
74656;SDS011;63185;45.642;13.764;2024-01-25T04:02:36;71.63;;;44.10;;
74656;SDS011;63185;45.642;13.764;2024-01-25T04:05:02;72.28;;;44.53;;
74656;SDS011;63185;45.642;13.764;2024-01-25T04:07:29;67.88;;;44.22;;
74656;SDS011;63185;45.642;13.764;2024-01-25T04:09:55;75.55;;;45.80;;
74656;SDS011;63185;45.642;13.764;2024-01-25T04:12:20;74.05;;;43.83;;
74656;SDS011;63185;45.642;13.764;2024-01-25T04:14:46;72.10;;;45.40;;
74656;SDS011;63185;45.642;13.764;2024-01-25T04:17:12;72.13;;;44.75;;
74656;SDS011;63185;45.642;13.764;2024-01-25T04:19:37;72.63;;;46.05;;
74656;SDS011;63185;45.642;13.764;2024-01-25T04:22:03;76.78;;;46.47;;
74656;SDS011;63185;45.642;13.764;2024-01-25T04:24:29;69.20;;;44.38;;
74656;SDS011;63185;45.642;13.764;2024-01-25T04:26:55;69.03;;;44.95;;
74656;SDS011;63185;45.642;13.764;2024-01-25T04:29:20;74.90;;;46.22;;
74656;SDS011;63185;45.642;13.764;2024-01-25T04:31:46;72.15;;;45.72;;
74656;SDS011;63185;45.642;13.764;2024-01-25T04:34:13;73.28;;;46.92;;
74656;SDS011;63185;45.642;13.764;2024-01-25T04:36:39;68.93;;;44.22;;
74656;SDS011;63185;45.642;13.764;2024-01-25T04:39:05;71.28;;;44.47;;
74656;SDS011;63185;45.642;13.764;2024-01-25T04:41:31;72.20;;;45.25;;
74656;SDS011;63185;45.642;13.764;2024-01-25T04:43:57;71.68;;;44.20;;
74656;SDS011;63185;45.642;13.764;2024-01-25T04:46:22;65.45;;;43.10;;
74656;SDS011;63185;45.642;13.764;2024-01-25T04:48:48;67.65;;;42.22;;
74656;SDS011;63185;45.642;13.764;2024-01-25T04:51:17;66.47;;;42.78;;
74656;SDS011;63185;45.642;13.764;2024-01-25T04:53:43;74.85;;;43.70;;
74656;SDS011;63185;45.642;13.764;2024-01-25T04:56:09;69.18;;;43.13;;
74656;SDS011;63185;45.642;13.764;2024-01-25T04:58:35;71.20;;;44.22;;
74656;SDS011;63185;45.642;13.764;2024-01-25T05:01:00;67.72;;;41.75;;
74656;SDS011;63185;45.642;13.764;2024-01-25T05:03:26;64.65;;;40.88;;
74656;SDS011;63185;45.642;13.764;2024-01-25T05:05:52;61.95;;;39.75;;
74656;SDS011;63185;45.642;13.764;2024-01-25T05:08:18;56.67;;;34.78;;
74656;SDS011;63185;45.642;13.764;2024-01-25T05:10:43;53.45;;;34.95;;
74656;SDS011;63185;45.642;13.764;2024-01-25T05:13:09;53.90;;;34.60;;
74656;SDS011;63185;45.642;13.764;2024-01-25T05:15:35;59.50;;;37.33;;
74656;SDS011;63185;45.642;13.764;2024-01-25T05:18:01;58.03;;;36.22;;
74656;SDS011;63185;45.642;13.764;2024-01-25T05:20:27;59.33;;;38.15;;
74656;SDS011;63185;45.642;13.764;2024-01-25T05:22:57;63.97;;;39.97;;
74656;SDS011;63185;45.642;13.764;2024-01-25T05:25:24;66.38;;;39.20;;
74656;SDS011;63185;45.642;13.764;2024-01-25T05:27:51;73.30;;;46.05;;
74656;SDS011;63185;45.642;13.764;2024-01-25T05:30:17;69.70;;;44.83;;
74656;SDS011;63185;45.642;13.764;2024-01-25T05:32:43;63.95;;;40.83;;
74656;SDS011;63185;45.642;13.764;2024-01-25T05:35:09;67.90;;;42.15;;
74656;SDS011;63185;45.642;13.764;2024-01-25T05:37:35;63.97;;;42.22;;
74656;SDS011;63185;45.642;13.764;2024-01-25T05:40:00;72.90;;;45.85;;
74656;SDS011;63185;45.642;13.764;2024-01-25T05:42:26;85.90;;;53.38;;
74656;SDS011;63185;45.642;13.764;2024-01-25T05:44:52;90.53;;;54.50;;
74656;SDS011;63185;45.642;13.764;2024-01-25T05:47:18;89.53;;;52.95;;
74656;SDS011;63185;45.642;13.764;2024-01-25T05:49:43;80.00;;;49.97;;
74656;SDS011;63185;45.642;13.764;2024-01-25T05:52:09;85.35;;;51.50;;
74656;SDS011;63185;45.642;13.764;2024-01-25T05:54:35;83.93;;;50.30;;
74656;SDS011;63185;45.642;13.764;2024-01-25T05:57:01;80.20;;;50.60;;
74656;SDS011;63185;45.642;13.764;2024-01-25T05:59:27;79.43;;;49.95;;
74656;SDS011;63185;45.642;13.764;2024-01-25T06:01:52;87.00;;;52.35;;
74656;SDS011;63185;45.642;13.764;2024-01-25T06:04:18;80.13;;;50.20;;
74656;SDS011;63185;45.642;13.764;2024-01-25T06:06:44;79.72;;;49.92;;
74656;SDS011;63185;45.642;13.764;2024-01-25T06:09:09;76.88;;;47.58;;
74656;SDS011;63185;45.642;13.764;2024-01-25T06:11:35;71.45;;;47.75;;
74656;SDS011;63185;45.642;13.764;2024-01-25T06:14:02;79.20;;;47.88;;
74656;SDS011;63185;45.642;13.764;2024-01-25T06:16:30;77.15;;;46.78;;
74656;SDS011;63185;45.642;13.764;2024-01-25T06:18:55;77.22;;;47.78;;
74656;SDS011;63185;45.642;13.764;2024-01-25T06:21:21;77.05;;;47.45;;
74656;SDS011;63185;45.642;13.764;2024-01-25T06:23:47;81.47;;;47.38;;
74656;SDS011;63185;45.642;13.764;2024-01-25T06:26:12;75.65;;;48.90;;
74656;SDS011;63185;45.642;13.764;2024-01-25T06:28:38;76.88;;;48.95;;
74656;SDS011;63185;45.642;13.764;2024-01-25T06:31:05;75.65;;;45.08;;
74656;SDS011;63185;45.642;13.764;2024-01-25T06:33:31;79.18;;;48.17;;
74656;SDS011;63185;45.642;13.764;2024-01-25T06:35:57;82.88;;;48.90;;
74656;SDS011;63185;45.642;13.764;2024-01-25T06:38:23;86.20;;;49.88;;
74656;SDS011;63185;45.642;13.764;2024-01-25T06:40:48;95.32;;;60.55;;
74656;SDS011;63185;45.642;13.764;2024-01-25T06:43:14;95.38;;;60.38;;
74656;SDS011;63185;45.642;13.764;2024-01-25T06:45:40;95.13;;;59.22;;
74656;SDS011;63185;45.642;13.764;2024-01-25T06:48:08;96.82;;;58.47;;
74656;SDS011;63185;45.642;13.764;2024-01-25T06:50:34;106.37;;;62.37;;
74656;SDS011;63185;45.642;13.764;2024-01-25T06:53:00;101.05;;;62.47;;
74656;SDS011;63185;45.642;13.764;2024-01-25T06:55:26;98.07;;;60.78;;
74656;SDS011;63185;45.642;13.764;2024-01-25T06:57:52;101.82;;;60.65;;
74656;SDS011;63185;45.642;13.764;2024-01-25T07:00:17;91.70;;;55.50;;
74656;SDS011;63185;45.642;13.764;2024-01-25T07:02:45;91.70;;;55.55;;
74656;SDS011;63185;45.642;13.764;2024-01-25T07:05:12;87.68;;;53.75;;
74656;SDS011;63185;45.642;13.764;2024-01-25T07:07:37;83.78;;;49.92;;
74656;SDS011;63185;45.642;13.764;2024-01-25T07:10:04;78.78;;;49.00;;
74656;SDS011;63185;45.642;13.764;2024-01-25T07:12:33;81.85;;;51.38;;
74656;SDS011;63185;45.642;13.764;2024-01-25T07:14:59;87.40;;;53.67;;
74656;SDS011;63185;45.642;13.764;2024-01-25T07:17:24;90.50;;;55.42;;
74656;SDS011;63185;45.642;13.764;2024-01-25T07:19:50;94.18;;;56.10;;
74656;SDS011;63185;45.642;13.764;2024-01-25T07:22:16;86.70;;;52.80;;
74656;SDS011;63185;45.642;13.764;2024-01-25T07:24:43;82.85;;;51.72;;
74656;SDS011;63185;45.642;13.764;2024-01-25T07:27:09;89.05;;;53.80;;
74656;SDS011;63185;45.642;13.764;2024-01-25T07:29:35;86.57;;;53.42;;
74656;SDS011;63185;45.642;13.764;2024-01-25T07:32:02;83.93;;;53.78;;
74656;SDS011;63185;45.642;13.764;2024-01-25T07:34:28;84.88;;;52.22;;
74656;SDS011;63185;45.642;13.764;2024-01-25T07:36:53;90.43;;;52.42;;
74656;SDS011;63185;45.642;13.764;2024-01-25T07:39:19;84.28;;;53.03;;
74656;SDS011;63185;45.642;13.764;2024-01-25T07:41:45;87.65;;;52.92;;
74656;SDS011;63185;45.642;13.764;2024-01-25T07:44:10;84.03;;;53.70;;
74656;SDS011;63185;45.642;13.764;2024-01-25T07:46:37;82.15;;;51.05;;
74656;SDS011;63185;45.642;13.764;2024-01-25T07:49:03;80.47;;;49.45;;
74656;SDS011;63185;45.642;13.764;2024-01-25T07:51:28;74.80;;;48.72;;
74656;SDS011;63185;45.642;13.764;2024-01-25T07:53:54;70.97;;;44.90;;
74656;SDS011;63185;45.642;13.764;2024-01-25T07:56:20;72.07;;;44.83;;
74656;SDS011;63185;45.642;13.764;2024-01-25T07:58:47;74.95;;;44.25;;
74656;SDS011;63185;45.642;13.764;2024-01-25T08:01:19;74.63;;;41.97;;
74656;SDS011;63185;45.642;13.764;2024-01-25T08:03:46;72.47;;;41.83;;
74656;SDS011;63185;45.642;13.764;2024-01-25T08:06:12;69.53;;;41.72;;
74656;SDS011;63185;45.642;13.764;2024-01-25T08:08:38;61.03;;;38.17;;
74656;SDS011;63185;45.642;13.764;2024-01-25T08:11:04;70.07;;;43.03;;
74656;SDS011;63185;45.642;13.764;2024-01-25T08:13:30;78.90;;;44.70;;
74656;SDS011;63185;45.642;13.764;2024-01-25T08:15:56;76.35;;;44.33;;
74656;SDS011;63185;45.642;13.764;2024-01-25T08:18:22;71.13;;;44.50;;
74656;SDS011;63185;45.642;13.764;2024-01-25T08:20:48;77.97;;;46.65;;
74656;SDS011;63185;45.642;13.764;2024-01-25T08:23:17;82.15;;;45.53;;
74656;SDS011;63185;45.642;13.764;2024-01-25T08:25:44;82.35;;;49.08;;
74656;SDS011;63185;45.642;13.764;2024-01-25T08:28:09;73.38;;;45.95;;
74656;SDS011;63185;45.642;13.764;2024-01-25T08:30:35;81.85;;;48.13;;
74656;SDS011;63185;45.642;13.764;2024-01-25T08:33:01;81.60;;;48.17;;
74656;SDS011;63185;45.642;13.764;2024-01-25T08:35:26;76.32;;;45.72;;
74656;SDS011;63185;45.642;13.764;2024-01-25T08:37:52;76.97;;;45.15;;
74656;SDS011;63185;45.642;13.764;2024-01-25T08:40:18;70.75;;;45.30;;
74656;SDS011;63185;45.642;13.764;2024-01-25T08:42:43;71.80;;;45.75;;
74656;SDS011;63185;45.642;13.764;2024-01-25T08:45:09;72.70;;;45.08;;
74656;SDS011;63185;45.642;13.764;2024-01-25T08:47:35;70.13;;;43.85;;
74656;SDS011;63185;45.642;13.764;2024-01-25T08:50:01;71.40;;;45.47;;
74656;SDS011;63185;45.642;13.764;2024-01-25T08:52:28;73.03;;;47.28;;
74656;SDS011;63185;45.642;13.764;2024-01-25T08:54:54;72.75;;;44.03;;
74656;SDS011;63185;45.642;13.764;2024-01-25T08:57:20;68.07;;;44.70;;
74656;SDS011;63185;45.642;13.764;2024-01-25T08:59:45;77.30;;;45.45;;
74656;SDS011;63185;45.642;13.764;2024-01-25T09:02:11;72.47;;;45.88;;
74656;SDS011;63185;45.642;13.764;2024-01-25T09:04:37;74.28;;;47.08;;
74656;SDS011;63185;45.642;13.764;2024-01-25T09:07:03;79.97;;;47.58;;
74656;SDS011;63185;45.642;13.764;2024-01-25T09:09:28;76.70;;;48.05;;
74656;SDS011;63185;45.642;13.764;2024-01-25T09:11:54;75.05;;;48.25;;
74656;SDS011;63185;45.642;13.764;2024-01-25T09:14:20;78.20;;;47.97;;
74656;SDS011;63185;45.642;13.764;2024-01-25T09:16:46;73.32;;;47.78;;
74656;SDS011;63185;45.642;13.764;2024-01-25T09:19:12;72.35;;;46.65;;
74656;SDS011;63185;45.642;13.764;2024-01-25T09:21:38;71.75;;;46.95;;
74656;SDS011;63185;45.642;13.764;2024-01-25T09:24:05;77.88;;;47.58;;
74656;SDS011;63185;45.642;13.764;2024-01-25T09:26:32;79.10;;;49.38;;
74656;SDS011;63185;45.642;13.764;2024-01-25T09:28:58;80.97;;;50.35;;
74656;SDS011;63185;45.642;13.764;2024-01-25T09:31:23;74.82;;;47.97;;
74656;SDS011;63185;45.642;13.764;2024-01-25T09:33:49;72.95;;;48.47;;
74656;SDS011;63185;45.642;13.764;2024-01-25T09:36:16;75.18;;;48.65;;
74656;SDS011;63185;45.642;13.764;2024-01-25T09:38:41;82.40;;;50.20;;
74656;SDS011;63185;45.642;13.764;2024-01-25T09:41:07;74.25;;;45.85;;
74656;SDS011;63185;45.642;13.764;2024-01-25T09:43:33;75.22;;;48.63;;
74656;SDS011;63185;45.642;13.764;2024-01-25T09:45:59;75.38;;;48.08;;
74656;SDS011;63185;45.642;13.764;2024-01-25T09:48:26;79.95;;;50.38;;
74656;SDS011;63185;45.642;13.764;2024-01-25T09:50:52;83.38;;;51.95;;
74656;SDS011;63185;45.642;13.764;2024-01-25T09:53:23;78.75;;;51.08;;
74656;SDS011;63185;45.642;13.764;2024-01-25T09:56:05;89.65;;;51.28;;
74656;SDS011;63185;45.642;13.764;2024-01-25T10:01:03;82.95;;;51.85;;
74656;SDS011;63185;45.642;13.764;2024-01-25T10:03:30;76.38;;;50.90;;
74656;SDS011;63185;45.642;13.764;2024-01-25T10:05:56;86.15;;;51.08;;
74656;SDS011;63185;45.642;13.764;2024-01-25T10:08:21;88.68;;;54.63;;
74656;SDS011;63185;45.642;13.764;2024-01-25T10:10:49;88.47;;;54.67;;
74656;SDS011;63185;45.642;13.764;2024-01-25T10:13:15;87.07;;;52.72;;
74656;SDS011;63185;45.642;13.764;2024-01-25T10:15:40;85.82;;;52.28;;
74656;SDS011;63185;45.642;13.764;2024-01-25T10:18:07;81.88;;;52.03;;
74656;SDS011;63185;45.642;13.764;2024-01-25T10:20:38;86.65;;;52.75;;
74656;SDS011;63185;45.642;13.764;2024-01-25T10:23:10;81.47;;;51.97;;
74656;SDS011;63185;45.642;13.764;2024-01-25T10:25:36;82.55;;;51.92;;
74656;SDS011;63185;45.642;13.764;2024-01-25T10:28:05;78.75;;;50.53;;
74656;SDS011;63185;45.642;13.764;2024-01-25T10:30:32;84.43;;;53.90;;
74656;SDS011;63185;45.642;13.764;2024-01-25T10:33:01;84.18;;;53.10;;
74656;SDS011;63185;45.642;13.764;2024-01-25T10:35:29;76.90;;;48.33;;
74656;SDS011;63185;45.642;13.764;2024-01-25T10:37:56;76.15;;;48.60;;
74656;SDS011;63185;45.642;13.764;2024-01-25T10:40:22;84.25;;;52.42;;
74656;SDS011;63185;45.642;13.764;2024-01-25T10:42:48;77.32;;;50.72;;
74656;SDS011;63185;45.642;13.764;2024-01-25T10:45:15;74.10;;;50.45;;
74656;SDS011;63185;45.642;13.764;2024-01-25T10:47:41;80.60;;;49.85;;
74656;SDS011;63185;45.642;13.764;2024-01-25T10:50:07;80.22;;;48.95;;
74656;SDS011;63185;45.642;13.764;2024-01-25T10:52:36;72.32;;;49.25;;
74656;SDS011;63185;45.642;13.764;2024-01-25T10:55:03;75.55;;;50.97;;
74656;SDS011;63185;45.642;13.764;2024-01-25T10:57:37;80.07;;;52.08;;
74656;SDS011;63185;45.642;13.764;2024-01-25T11:00:09;80.25;;;50.75;;
74656;SDS011;63185;45.642;13.764;2024-01-25T11:02:36;82.55;;;52.03;;
74656;SDS011;63185;45.642;13.764;2024-01-25T11:05:05;76.13;;;51.33;;
74656;SDS011;63185;45.642;13.764;2024-01-25T11:07:44;79.22;;;49.97;;
74656;SDS011;63185;45.642;13.764;2024-01-25T11:10:15;87.00;;;52.92;;
74656;SDS011;63185;45.642;13.764;2024-01-25T11:12:55;79.80;;;48.93;;
74656;SDS011;63185;45.642;13.764;2024-01-25T11:15:21;79.93;;;50.15;;
74656;SDS011;63185;45.642;13.764;2024-01-25T11:17:52;84.53;;;52.97;;
74656;SDS011;63185;45.642;13.764;2024-01-25T11:20:22;85.53;;;53.95;;
74656;SDS011;63185;45.642;13.764;2024-01-25T11:22:55;83.88;;;55.42;;
74656;SDS011;63185;45.642;13.764;2024-01-25T11:25:21;80.57;;;52.53;;
74656;SDS011;63185;45.642;13.764;2024-01-25T11:27:50;79.90;;;51.47;;
74656;SDS011;63185;45.642;13.764;2024-01-25T11:30:19;79.43;;;51.50;;
74656;SDS011;63185;45.642;13.764;2024-01-25T11:32:48;76.93;;;50.45;;
74656;SDS011;63185;45.642;13.764;2024-01-25T11:35:15;78.72;;;51.55;;
74656;SDS011;63185;45.642;13.764;2024-01-25T11:37:42;78.00;;;48.92;;
74656;SDS011;63185;45.642;13.764;2024-01-25T11:40:09;69.82;;;45.33;;
74656;SDS011;63185;45.642;13.764;2024-01-25T11:42:36;58.33;;;34.13;;
74656;SDS011;63185;45.642;13.764;2024-01-25T11:45:02;52.53;;;34.55;;
74656;SDS011;63185;45.642;13.764;2024-01-25T11:47:29;44.63;;;25.60;;
74656;SDS011;63185;45.642;13.764;2024-01-25T11:49:55;41.60;;;23.48;;
74656;SDS011;63185;45.642;13.764;2024-01-25T11:52:21;29.08;;;15.77;;
74656;SDS011;63185;45.642;13.764;2024-01-25T11:54:47;38.95;;;21.95;;
74656;SDS011;63185;45.642;13.764;2024-01-25T11:57:12;38.38;;;23.98;;
74656;SDS011;63185;45.642;13.764;2024-01-25T11:59:38;34.45;;;20.65;;
74656;SDS011;63185;45.642;13.764;2024-01-25T12:02:04;33.50;;;20.73;;
74656;SDS011;63185;45.642;13.764;2024-01-25T12:04:30;33.75;;;19.33;;
74656;SDS011;63185;45.642;13.764;2024-01-25T12:06:57;30.83;;;18.20;;
74656;SDS011;63185;45.642;13.764;2024-01-25T12:09:22;33.88;;;19.00;;
74656;SDS011;63185;45.642;13.764;2024-01-25T12:11:51;37.65;;;23.52;;
74656;SDS011;63185;45.642;13.764;2024-01-25T12:14:17;32.23;;;20.90;;
74656;SDS011;63185;45.642;13.764;2024-01-25T12:16:43;29.77;;;20.00;;
74656;SDS011;63185;45.642;13.764;2024-01-25T12:19:08;32.05;;;21.25;;
74656;SDS011;63185;45.642;13.764;2024-01-25T12:21:34;33.47;;;22.45;;
74656;SDS011;63185;45.642;13.764;2024-01-25T12:24:01;42.17;;;26.98;;
74656;SDS011;63185;45.642;13.764;2024-01-25T12:26:27;54.58;;;32.35;;
74656;SDS011;63185;45.642;13.764;2024-01-25T12:28:53;41.80;;;26.13;;
74656;SDS011;63185;45.642;13.764;2024-01-25T12:31:19;34.75;;;19.92;;
74656;SDS011;63185;45.642;13.764;2024-01-25T12:33:44;41.10;;;26.33;;
74656;SDS011;63185;45.642;13.764;2024-01-25T12:36:10;43.47;;;26.95;;
74656;SDS011;63185;45.642;13.764;2024-01-25T12:38:36;36.85;;;22.33;;
74656;SDS011;63185;45.642;13.764;2024-01-25T12:41:01;29.55;;;19.50;;
74656;SDS011;63185;45.642;13.764;2024-01-25T12:43:28;31.90;;;18.95;;
74656;SDS011;63185;45.642;13.764;2024-01-25T12:45:54;25.98;;;17.35;;
74656;SDS011;63185;45.642;13.764;2024-01-25T12:48:20;35.42;;;22.05;;
74656;SDS011;63185;45.642;13.764;2024-01-25T12:50:46;37.30;;;23.17;;
74656;SDS011;63185;45.642;13.764;2024-01-25T12:53:11;33.50;;;21.38;;
74656;SDS011;63185;45.642;13.764;2024-01-25T12:55:39;35.95;;;22.83;;
74656;SDS011;63185;45.642;13.764;2024-01-25T12:58:05;47.33;;;25.95;;
74656;SDS011;63185;45.642;13.764;2024-01-25T13:00:30;43.63;;;26.65;;
74656;SDS011;63185;45.642;13.764;2024-01-25T13:02:56;40.00;;;25.88;;
74656;SDS011;63185;45.642;13.764;2024-01-25T13:05:22;38.30;;;26.60;;
74656;SDS011;63185;45.642;13.764;2024-01-25T13:07:48;42.40;;;27.63;;
74656;SDS011;63185;45.642;13.764;2024-01-25T13:10:14;37.45;;;24.23;;
74656;SDS011;63185;45.642;13.764;2024-01-25T13:12:40;41.40;;;21.92;;
74656;SDS011;63185;45.642;13.764;2024-01-25T13:15:06;30.90;;;17.85;;
74656;SDS011;63185;45.642;13.764;2024-01-25T13:17:34;31.73;;;18.17;;
74656;SDS011;63185;45.642;13.764;2024-01-25T13:20:01;32.22;;;21.25;;
74656;SDS011;63185;45.642;13.764;2024-01-25T13:22:27;31.60;;;19.33;;
74656;SDS011;63185;45.642;13.764;2024-01-25T13:24:55;32.00;;;19.70;;
74656;SDS011;63185;45.642;13.764;2024-01-25T13:27:20;32.03;;;19.23;;
74656;SDS011;63185;45.642;13.764;2024-01-25T13:29:46;32.95;;;20.73;;
74656;SDS011;63185;45.642;13.764;2024-01-25T13:32:12;36.63;;;20.23;;
74656;SDS011;63185;45.642;13.764;2024-01-25T13:34:37;29.98;;;18.30;;
74656;SDS011;63185;45.642;13.764;2024-01-25T13:37:03;33.80;;;21.88;;
74656;SDS011;63185;45.642;13.764;2024-01-25T13:39:29;37.00;;;22.13;;
74656;SDS011;63185;45.642;13.764;2024-01-25T13:41:54;33.72;;;21.63;;
74656;SDS011;63185;45.642;13.764;2024-01-25T13:44:21;29.45;;;15.25;;
74656;SDS011;63185;45.642;13.764;2024-01-25T13:46:47;31.63;;;15.48;;
74656;SDS011;63185;45.642;13.764;2024-01-25T13:49:13;15.93;;;9.57;;
74656;SDS011;63185;45.642;13.764;2024-01-25T13:51:39;18.17;;;10.85;;
74656;SDS011;63185;45.642;13.764;2024-01-25T13:54:04;25.00;;;13.65;;
74656;SDS011;63185;45.642;13.764;2024-01-25T13:56:30;20.35;;;13.90;;
74656;SDS011;63185;45.642;13.764;2024-01-25T13:58:55;36.00;;;17.90;;
74656;SDS011;63185;45.642;13.764;2024-01-25T14:01:21;27.25;;;16.52;;
74656;SDS011;63185;45.642;13.764;2024-01-25T14:03:47;25.55;;;16.88;;
74656;SDS011;63185;45.642;13.764;2024-01-25T14:06:13;20.20;;;12.95;;